Time;durP1;ratioP1;P1;durP2;ratioP2;P2;SDS_P1;SDS_P2;PMS_P1;PMS_P2;Temp;Humidity;BMP_temperature;BMP_pressure;BME280_temperature;BME280_humidity;BME280_pressure;Samples;Min_cycle;Max_cycle;Signal;HPM_P1;HPM_P2
2023/08/23 00:00:00;;;;;;;6.00;4.10;;;22.40;99.40;;;;;;5033043;28;20021;-67
2023/08/23 00:02:26;;;;;;;5.28;3.38;;;22.40;99.30;;;;;;5033124;28;20095;-66
2023/08/23 00:04:52;;;;;;;4.40;3.65;;;22.40;99.30;;;;;;5032836;28;20042;-65
2023/08/23 00:07:17;;;;;;;8.80;4.13;;;22.40;99.20;;;;;;5033117;28;20025;-65
2023/08/23 00:09:43;;;;;;;5.88;4.28;;;22.30;99.10;;;;;;5037634;28;20033;-66
2023/08/23 00:12:09;;;;;;;7.45;4.93;;;22.30;99.10;;;;;;5032670;28;20032;-65
2023/08/23 00:14:35;;;;;;;6.18;4.22;;;22.30;99.10;;;;;;5032985;28;20489;-65
2023/08/23 00:17:00;;;;;;;7.40;4.35;;;22.30;99.20;;;;;;5033269;28;20044;-65
2023/08/23 00:19:26;;;;;;;5.38;4.47;;;22.30;99.20;;;;;;5032802;28;20033;-66
2023/08/23 00:21:52;;;;;;;6.47;4.40;;;22.20;99.20;;;;;;5032862;28;20462;-65
2023/08/23 00:24:19;;;;;;;10.98;4.57;;;22.20;99.20;;;;;;5032580;28;20068;-65
2023/08/23 00:26:45;;;;;;;7.22;4.63;;;22.20;99.00;;;;;;5029970;28;20091;-65
2023/08/23 00:29:11;;;;;;;6.68;4.18;;;22.20;99.10;;;;;;5013947;28;20507;-66
2023/08/23 00:31:36;;;;;;;9.48;4.90;;;22.20;99.10;;;;;;5010824;28;20105;-65
2023/08/23 00:34:02;;;;;;;5.55;4.45;;;22.10;99.10;;;;;;5027034;28;20405;-65
2023/08/23 00:36:28;;;;;;;6.15;4.65;;;22.10;99.00;;;;;;5051265;28;20108;-65
2023/08/23 00:38:55;;;;;;;6.50;4.85;;;22.10;99.00;;;;;;5051421;28;20108;-65
2023/08/23 00:41:21;;;;;;;7.35;4.93;;;22.10;99.10;;;;;;5051474;28;20070;-66
2023/08/23 00:43:46;;;;;;;9.05;4.97;;;22.10;99.10;;;;;;5050860;28;20032;-65
2023/08/23 00:46:13;;;;;;;5.15;4.60;;;22.00;99.10;;;;;;5051450;28;20455;-65
2023/08/23 00:48:39;;;;;;;7.30;5.22;;;22.00;99.10;;;;;;5033953;28;20079;-65
2023/08/23 00:51:05;;;;;;;6.47;4.40;;;22.00;99.10;;;;;;5051874;28;20095;-66
2023/08/23 00:53:31;;;;;;;5.78;4.57;;;22.00;99.10;;;;;;5036001;28;20034;-65
2023/08/23 00:55:59;;;;;;;5.10;4.30;;;22.00;99.10;;;;;;5032696;28;20021;-65
2023/08/23 00:58:24;;;;;;;8.15;4.60;;;21.90;99.10;;;;;;5032845;28;20036;-65
2023/08/23 01:00:50;;;;;;;6.70;4.55;;;22.00;99.10;;;;;;5033416;28;20026;-64
2023/08/23 01:03:16;;;;;;;6.90;5.10;;;21.90;99.00;;;;;;5035825;28;20036;-65
2023/08/23 01:05:58;;;;;;;7.80;4.70;;;21.90;99.10;;;;;;5036395;28;20064;-66
2023/08/23 01:08:42;;;;;;;8.05;4.80;;;21.90;99.20;;;;;;5036517;28;20028;-65
2023/08/23 01:11:27;;;;;;;6.05;5.10;;;21.80;99.20;;;;;;5036407;28;20046;-65
2023/08/23 01:14:01;;;;;;;6.53;4.45;;;21.90;99.20;;;;;;5039224;28;20021;-65
2023/08/23 01:16:27;;;;;;;7.00;4.72;;;21.80;99.20;;;;;;5038426;28;20030;-70
2023/08/23 01:18:55;;;;;;;6.30;4.97;;;21.80;99.40;;;;;;5035606;28;20021;-66
2023/08/23 01:21:36;;;;;;;6.82;4.78;;;21.80;99.50;;;;;;5035853;28;20463;-66
2023/08/23 01:24:08;;;;;;;6.60;4.30;;;21.80;99.50;;;;;;5034187;28;20041;-67
2023/08/23 01:26:43;;;;;;;9.60;5.53;;;21.70;99.60;;;;;;5034638;28;20360;-66
2023/08/23 01:29:08;;;;;;;6.43;4.68;;;21.70;99.50;;;;;;5034312;28;20426;-65
2023/08/23 01:31:39;;;;;;;7.38;4.93;;;21.70;99.50;;;;;;5034838;28;20025;-65
2023/08/23 01:34:15;;;;;;;6.93;4.78;;;21.60;99.50;;;;;;5033960;28;20021;-65
2023/08/23 01:36:41;;;;;;;6.47;4.80;;;21.70;99.60;;;;;;5035820;28;20017;-65
2023/08/23 01:39:10;;;;;;;7.47;5.13;;;21.60;99.60;;;;;;5035802;28;20385;-64
2023/08/23 01:41:37;;;;;;;6.65;4.55;;;21.60;99.70;;;;;;5035686;28;20026;-65
2023/08/23 01:44:02;;;;;;;6.68;5.18;;;21.60;99.70;;;;;;5035854;28;20042;-65
2023/08/23 01:46:28;;;;;;;8.77;5.70;;;21.50;99.60;;;;;;5034895;28;20031;-66
2023/08/23 01:48:54;;;;;;;7.82;5.07;;;21.50;99.60;;;;;;5035607;28;20025;-65
2023/08/23 01:51:19;;;;;;;8.40;5.18;;;21.50;99.60;;;;;;5035548;28;20046;-65
2023/08/23 01:53:45;;;;;;;6.55;5.30;;;21.50;99.70;;;;;;5035622;28;20415;-66
2023/08/23 01:56:10;;;;;;;7.65;5.53;;;21.50;99.70;;;;;;5035457;28;20490;-67
2023/08/23 01:58:36;;;;;;;7.63;5.45;;;21.40;99.70;;;;;;5035129;28;20044;-65
2023/08/23 02:01:02;;;;;;;7.53;4.90;;;21.40;99.70;;;;;;5035175;28;20100;-65
2023/08/23 02:03:27;;;;;;;6.50;4.80;;;21.40;99.70;;;;;;5035064;28;20041;-66
2023/08/23 02:05:55;;;;;;;6.65;5.28;;;21.40;99.70;;;;;;5035404;28;20033;-65
2023/08/23 02:08:20;;;;;;;7.35;5.15;;;21.30;99.70;;;;;;5035161;28;20666;-66
2023/08/23 02:10:46;;;;;;;9.40;5.38;;;21.30;99.70;;;;;;5035346;28;20120;-65
2023/08/23 02:13:11;;;;;;;5.82;4.78;;;21.30;99.80;;;;;;5034820;28;20024;-67
2023/08/23 02:15:37;;;;;;;7.43;5.60;;;21.30;99.80;;;;;;5034825;28;20068;-66
2023/08/23 02:18:02;;;;;;;6.57;4.95;;;21.30;99.80;;;;;;5035070;28;20018;-65
2023/08/23 02:20:28;;;;;;;8.23;4.80;;;21.30;99.80;;;;;;5035093;28;20033;-65
2023/08/23 02:22:54;;;;;;;7.15;4.85;;;21.20;99.80;;;;;;5034956;28;20021;-65
2023/08/23 02:25:19;;;;;;;8.00;5.22;;;21.20;99.80;;;;;;5035160;28;20030;-65
2023/08/23 02:27:45;;;;;;;10.25;6.47;;;21.20;99.80;;;;;;5034813;28;20474;-65
2023/08/23 02:30:12;;;;;;;10.50;6.28;;;21.20;99.90;;;;;;5034583;28;20105;-65
2023/08/23 02:32:37;;;;;;;9.73;6.32;;;21.20;99.90;;;;;;5035039;28;20022;-65
2023/08/23 02:35:03;;;;;;;7.65;6.18;;;21.10;99.90;;;;;;5034940;28;20033;-66
2023/08/23 02:37:29;;;;;;;9.05;6.13;;;21.10;99.90;;;;;;5034641;28;20030;-65
2023/08/23 02:39:54;;;;;;;10.32;6.40;;;21.10;99.90;;;;;;5034572;28;20391;-66
2023/08/23 02:42:20;;;;;;;8.02;6.72;;;21.10;99.90;;;;;;5034649;28;20090;-65
2023/08/23 02:44:45;;;;;;;8.80;7.20;;;21.10;99.90;;;;;;5034570;28;20029;-65
2023/08/23 02:47:11;;;;;;;9.63;6.55;;;21.00;99.90;;;;;;5034592;28;20088;-65
2023/08/23 02:49:37;;;;;;;9.38;6.38;;;21.00;99.90;;;;;;5034441;28;20041;-65
2023/08/23 02:52:03;;;;;;;11.07;7.50;;;21.00;99.90;;;;;;5034371;28;20014;-65
2023/08/23 02:54:29;;;;;;;13.57;7.00;;;21.00;99.90;;;;;;5034771;28;20025;-65
2023/08/23 02:56:54;;;;;;;10.73;7.10;;;20.90;99.90;;;;;;5034352;28;20048;-65
2023/08/23 02:59:20;;;;;;;9.93;7.20;;;20.90;99.90;;;;;;5033875;28;20079;-65
2023/08/23 03:01:46;;;;;;;11.70;7.65;;;20.90;99.90;;;;;;5034139;28;20026;-65
2023/08/23 03:04:11;;;;;;;8.98;7.60;;;20.90;99.90;;;;;;5033997;28;20037;-65
2023/08/23 03:06:37;;;;;;;9.35;8.38;;;20.90;99.90;;;;;;5034135;28;20036;-65
2023/08/23 03:09:02;;;;;;;10.40;8.13;;;20.90;99.90;;;;;;5034142;28;20025;-65
2023/08/23 03:11:28;;;;;;;10.80;8.43;;;20.90;99.90;;;;;;5034288;28;20025;-65
2023/08/23 03:13:53;;;;;;;11.55;9.02;;;20.80;99.90;;;;;;5033701;28;20029;-65
2023/08/23 03:16:19;;;;;;;10.23;7.90;;;20.80;99.90;;;;;;5034532;28;20554;-64
2023/08/23 03:18:45;;;;;;;9.77;7.82;;;20.80;99.90;;;;;;5035836;28;20026;-65
2023/08/23 03:21:11;;;;;;;10.65;8.65;;;20.80;99.90;;;;;;5036118;28;20013;-65
2023/08/23 03:23:36;;;;;;;11.70;8.38;;;20.80;99.90;;;;;;5033497;28;20091;-65
2023/08/23 03:26:02;;;;;;;10.98;7.63;;;20.80;99.90;;;;;;5033385;28;20017;-65
2023/08/23 03:28:28;;;;;;;9.38;8.38;;;20.80;99.90;;;;;;5033549;28;20501;-65
2023/08/23 03:30:53;;;;;;;14.13;9.10;;;20.70;99.90;;;;;;5033867;28;20014;-66
2023/08/23 03:33:19;;;;;;;9.82;8.27;;;20.70;99.90;;;;;;5033724;28;20048;-66
2023/08/23 03:35:51;;;;;;;11.07;8.35;;;20.70;99.90;;;;;;5033549;28;20040;-65
2023/08/23 03:38:17;;;;;;;12.07;8.60;;;20.70;99.90;;;;;;5033736;28;20021;-66
2023/08/23 03:40:42;;;;;;;10.65;9.50;;;20.70;99.90;;;;;;5033647;28;20528;-65
2023/08/23 03:43:08;;;;;;;12.27;9.73;;;20.60;99.90;;;;;;5033263;28;20039;-68
2023/08/23 03:45:34;;;;;;;11.63;9.35;;;20.60;99.90;;;;;;5033663;28;20037;-66
2023/08/23 03:48:00;;;;;;;11.30;9.95;;;20.60;99.90;;;;;;5033428;28;20025;-65
2023/08/23 03:50:25;;;;;;;9.88;8.88;;;20.60;99.90;;;;;;5033357;28;20029;-65
2023/08/23 03:52:51;;;;;;;11.38;9.52;;;20.60;99.90;;;;;;5033375;28;20022;-65
2023/08/23 03:55:16;;;;;;;13.43;10.52;;;20.50;99.90;;;;;;5033412;28;20029;-68
2023/08/23 03:57:42;;;;;;;15.60;11.05;;;20.50;99.90;;;;;;5033097;28;20449;-67
2023/08/23 04:00:08;;;;;;;11.55;9.65;;;20.50;99.90;;;;;;5033234;28;20021;-66
2023/08/23 04:02:34;;;;;;;12.85;10.10;;;20.50;99.90;;;;;;5033237;28;20036;-65
2023/08/23 04:05:02;;;;;;;10.93;9.77;;;20.50;99.90;;;;;;5032974;28;20041;-66
2023/08/23 04:07:27;;;;;;;16.85;10.38;;;20.50;99.90;;;;;;5033498;28;20022;-66
2023/08/23 04:09:53;;;;;;;12.13;9.57;;;20.50;99.90;;;;;;5033181;28;20033;-65
2023/08/23 04:12:18;;;;;;;13.38;10.93;;;20.50;99.90;;;;;;5033035;28;20574;-65
2023/08/23 04:14:44;;;;;;;11.75;10.48;;;20.40;99.90;;;;;;5033058;28;20029;-65
2023/08/23 04:17:10;;;;;;;13.07;9.82;;;20.40;99.90;;;;;;5032843;28;20414;-65
2023/08/23 04:19:36;;;;;;;13.23;10.30;;;20.40;99.90;;;;;;5033039;28;20029;-65
2023/08/23 04:22:02;;;;;;;11.65;9.70;;;20.40;99.90;;;;;;5033104;28;20021;-66
2023/08/23 04:24:27;;;;;;;10.32;9.35;;;20.30;99.90;;;;;;5032846;28;20554;-65
2023/08/23 04:26:53;;;;;;;12.25;9.98;;;20.30;99.90;;;;;;5032861;28;20093;-65
2023/08/23 04:29:19;;;;;;;14.75;10.20;;;20.30;99.90;;;;;;5029890;28;20360;-65
2023/08/23 04:31:44;;;;;;;12.48;10.98;;;20.30;99.90;;;;;;5026892;28;20080;-66
2023/08/23 04:34:10;;;;;;;19.67;14.02;;;20.30;99.90;;;;;;5039270;28;20581;-66
2023/08/23 04:36:36;;;;;;;14.85;11.35;;;20.30;99.90;;;;;;5033627;28;20068;-65
2023/08/23 04:39:01;;;;;;;15.88;11.00;;;20.30;99.90;;;;;;5047400;28;20029;-67
2023/08/23 04:41:27;;;;;;;11.48;9.07;;;20.30;99.90;;;;;;5056534;28;20087;-68
2023/08/23 04:43:52;;;;;;;11.50;9.60;;;20.30;99.90;;;;;;5032917;28;20100;-65
2023/08/23 04:46:18;;;;;;;13.77;10.43;;;20.30;99.90;;;;;;5045525;28;20033;-65
2023/08/23 04:48:44;;;;;;;13.68;10.23;;;20.30;99.90;;;;;;5039925;28;20022;-65
2023/08/23 04:51:09;;;;;;;13.65;9.23;;;20.30;99.90;;;;;;5038827;28;20094;-66
2023/08/23 04:53:36;;;;;;;12.52;10.23;;;20.30;99.90;;;;;;5056806;28;20029;-66
2023/08/23 04:56:02;;;;;;;11.27;9.90;;;20.30;99.90;;;;;;5046968;28;20021;-65
2023/08/23 04:58:31;;;;;;;12.40;9.27;;;20.30;99.90;;;;;;5035029;28;20116;-67
2023/08/23 05:01:06;;;;;;;12.82;8.98;;;20.20;99.90;;;;;;5035971;28;20017;-66
2023/08/23 05:03:33;;;;;;;15.70;9.35;;;20.20;99.90;;;;;;5036291;28;20072;-66
2023/08/23 05:05:59;;;;;;;12.93;9.40;;;20.20;99.90;;;;;;5035713;28;20033;-66
2023/08/23 05:08:25;;;;;;;14.55;8.93;;;20.20;99.90;;;;;;5034730;28;20109;-65
2023/08/23 05:10:55;;;;;;;11.50;9.02;;;20.20;99.90;;;;;;5036041;28;20030;-65
2023/08/23 05:13:22;;;;;;;12.77;10.23;;;20.20;99.90;;;;;;5036413;28;20033;-65
2023/08/23 05:15:55;;;;;;;13.15;9.65;;;20.20;99.90;;;;;;5036005;28;20037;-66
2023/08/23 05:18:22;;;;;;;13.02;9.85;;;20.20;99.90;;;;;;5036299;28;20033;-66
2023/08/23 05:20:55;;;;;;;12.70;10.13;;;20.20;99.90;;;;;;5036128;28;20053;-65
2023/08/23 05:23:22;;;;;;;13.82;10.18;;;20.20;99.90;;;;;;5036265;28;20159;-66
2023/08/23 05:25:48;;;;;;;15.10;10.75;;;20.20;99.90;;;;;;5035757;28;20033;-65
2023/08/23 05:28:13;;;;;;;14.88;10.50;;;20.10;99.90;;;;;;5036063;28;20037;-66
2023/08/23 05:30:41;;;;;;;18.17;9.70;;;20.20;99.90;;;;;;5035901;28;20025;-65
2023/08/23 05:33:07;;;;;;;11.65;10.43;;;20.20;99.90;;;;;;5036125;28;20038;-66
2023/08/23 05:35:33;;;;;;;12.27;10.32;;;20.20;99.90;;;;;;5036212;28;20075;-65
2023/08/23 05:37:59;;;;;;;14.13;10.02;;;20.10;99.90;;;;;;5036821;28;20069;-65
2023/08/23 05:40:24;;;;;;;13.20;10.82;;;20.10;99.90;;;;;;5036058;28;20049;-66
2023/08/23 05:42:51;;;;;;;12.45;10.98;;;20.10;99.90;;;;;;5035694;28;20470;-69
2023/08/23 05:45:16;;;;;;;16.23;11.65;;;20.10;99.90;;;;;;5035791;28;20037;-68
2023/08/23 05:47:42;;;;;;;12.57;10.57;;;20.20;99.90;;;;;;5034871;28;20383;-66
2023/08/23 05:50:08;;;;;;;13.50;12.02;;;20.20;99.90;;;;;;5035804;28;20033;-71
2023/08/23 05:52:34;;;;;;;14.95;11.43;;;20.10;99.90;;;;;;5034068;28;20417;-67
2023/08/23 05:54:59;;;;;;;14.15;12.05;;;20.10;99.90;;;;;;5035721;28;20467;-68
2023/08/23 05:57:25;;;;;;;14.93;11.10;;;20.20;99.90;;;;;;5035370;28;20036;-66
2023/08/23 05:59:50;;;;;;;13.82;10.60;;;20.10;99.90;;;;;;5035485;28;20498;-72
2023/08/23 06:02:16;;;;;;;12.43;10.43;;;20.20;99.90;;;;;;5035321;28;20033;-73
2023/08/23 06:04:42;;;;;;;15.90;11.05;;;20.20;99.90;;;;;;5035313;28;20128;-74
2023/08/23 06:07:07;;;;;;;18.20;11.63;;;20.20;99.90;;;;;;5034930;28;20352;-73
2023/08/23 06:09:33;;;;;;;18.25;11.98;;;20.20;99.90;;;;;;5035433;28;20044;-73
2023/08/23 06:12:00;;;;;;;16.55;11.75;;;20.30;99.90;;;;;;5035080;28;20024;-74
2023/08/23 06:14:25;;;;;;;19.08;12.50;;;20.20;99.90;;;;;;5035198;28;20467;-66
2023/08/23 06:16:51;;;;;;;15.65;12.02;;;20.30;99.90;;;;;;5034941;28;20064;-66
2023/08/23 06:19:17;;;;;;;15.82;11.68;;;20.30;99.90;;;;;;5035071;28;20117;-66
2023/08/23 06:21:43;;;;;;;13.88;11.13;;;20.30;99.90;;;;;;5034517;28;20017;-67
2023/08/23 06:24:09;;;;;;;12.93;10.45;;;20.30;99.90;;;;;;5034764;28;20053;-66
2023/08/23 06:26:35;;;;;;;14.82;10.32;;;20.40;99.90;;;;;;5035065;28;20549;-65
2023/08/23 06:29:01;;;;;;;11.70;10.40;;;20.40;99.90;;;;;;5034813;28;20033;-66
2023/08/23 06:31:26;;;;;;;14.40;10.52;;;20.40;99.90;;;;;;5034727;28;20075;-73
2023/08/23 06:33:52;;;;;;;15.00;9.82;;;20.40;99.90;;;;;;5034863;28;20029;-73
2023/08/23 06:36:18;;;;;;;14.30;10.50;;;20.50;99.90;;;;;;5034609;28;20109;-72
2023/08/23 06:38:44;;;;;;;13.70;10.23;;;20.50;99.90;;;;;;5034505;28;20057;-72
2023/08/23 06:41:10;;;;;;;16.65;9.95;;;20.50;99.90;;;;;;5034670;28;20053;-74
2023/08/23 06:43:35;;;;;;;12.57;9.10;;;20.50;99.90;;;;;;5016675;28;20072;-74
2023/08/23 06:46:01;;;;;;;14.38;9.90;;;20.60;99.90;;;;;;5034627;28;20040;-66
2023/08/23 06:48:27;;;;;;;13.35;10.60;;;20.60;99.90;;;;;;5034286;28;20033;-65
2023/08/23 06:50:54;;;;;;;18.95;10.02;;;20.60;99.90;;;;;;5034352;28;20075;-66
2023/08/23 06:53:20;;;;;;;14.57;9.93;;;20.60;99.90;;;;;;5034361;28;20060;-65
2023/08/23 06:55:46;;;;;;;12.85;9.65;;;20.70;99.90;;;;;;5034180;28;20024;-66
2023/08/23 06:58:12;;;;;;;17.52;9.65;;;20.80;99.90;;;;;;5034201;28;20030;-65
2023/08/23 07:00:37;;;;;;;12.50;9.77;;;20.90;99.90;;;;;;5034430;28;20022;-65
2023/08/23 07:03:03;;;;;;;17.92;9.20;;;20.90;99.90;;;;;;5033982;28;20113;-66
2023/08/23 07:05:32;;;;;;;15.52;9.38;;;20.90;99.90;;;;;;5033837;28;20455;-66
2023/08/23 07:07:58;;;;;;;15.43;9.13;;;20.90;99.90;;;;;;5034007;28;20056;-65
2023/08/23 07:10:24;;;;;;;13.25;9.15;;;20.90;99.90;;;;;;5034118;28;20374;-65
2023/08/23 07:12:49;;;;;;;13.50;9.10;;;21.00;99.90;;;;;;5034077;28;20028;-68
2023/08/23 07:15:15;;;;;;;13.93;9.70;;;21.00;99.90;;;;;;5034166;28;20017;-66
2023/08/23 07:17:40;;;;;;;12.50;8.30;;;21.00;99.90;;;;;;5034221;28;20426;-68
2023/08/23 07:20:07;;;;;;;11.25;8.80;;;21.00;99.90;;;;;;5033523;28;20413;-66
2023/08/23 07:22:32;;;;;;;16.63;9.02;;;21.10;99.90;;;;;;5016361;28;20025;-67
2023/08/23 07:24:58;;;;;;;12.60;8.45;;;21.10;99.90;;;;;;5033681;28;20056;-65
2023/08/23 07:27:23;;;;;;;12.85;9.15;;;21.20;99.90;;;;;;5033851;28;20025;-66
2023/08/23 07:29:49;;;;;;;16.40;7.68;;;21.20;99.90;;;;;;5033561;28;20108;-66
2023/08/23 07:32:14;;;;;;;9.95;7.57;;;21.30;99.90;;;;;;5033981;28;20040;-65
2023/08/23 07:34:40;;;;;;;11.52;8.05;;;21.30;99.90;;;;;;5033337;28;20041;-66
2023/08/23 07:37:06;;;;;;;13.18;7.60;;;21.30;99.90;;;;;;5033740;28;20021;-65
2023/08/23 07:39:32;;;;;;;11.45;7.40;;;21.40;99.90;;;;;;5032703;28;20025;-65
2023/08/23 07:41:58;;;;;;;9.60;6.65;;;21.40;99.90;;;;;;5031916;28;20421;-65
2023/08/23 07:44:24;;;;;;;11.30;7.22;;;21.50;99.90;;;;;;5031134;28;20506;-66
2023/08/23 07:46:49;;;;;;;12.10;6.20;;;21.50;99.90;;;;;;5032106;28;20029;-66
2023/08/23 07:49:15;;;;;;;8.93;6.25;;;21.60;99.90;;;;;;5032321;28;20029;-65
2023/08/23 07:51:41;;;;;;;10.57;5.95;;;21.60;99.90;;;;;;5032323;28;20595;-65
2023/08/23 07:54:07;;;;;;;8.63;5.63;;;21.70;99.90;;;;;;5032291;28;20490;-65
2023/08/23 07:56:33;;;;;;;13.40;4.90;;;21.70;99.90;;;;;;5035634;28;20370;-73
2023/08/23 07:58:59;;;;;;;7.82;4.43;;;21.80;99.90;;;;;;5033404;28;20033;-73
2023/08/23 08:01:26;;;;;;;8.38;4.03;;;21.80;99.90;;;;;;5014329;28;20049;-66
2023/08/23 08:03:52;;;;;;;10.02;5.00;;;21.80;99.90;;;;;;5032385;28;20068;-65
2023/08/23 08:06:18;;;;;;;7.63;4.18;;;21.90;99.90;;;;;;5033341;28;20026;-66
2023/08/23 08:08:44;;;;;;;6.93;4.05;;;21.90;99.90;;;;;;5033194;28;20029;-66
2023/08/23 08:11:11;;;;;;;8.02;5.88;;;22.00;99.90;;;;;;5030633;28;20017;-67
2023/08/23 08:13:37;;;;;;;12.02;6.75;;;22.00;99.90;;;;;;5033330;28;20029;-66
2023/08/23 08:16:10;;;;;;;8.30;6.57;;;22.10;99.90;;;;;;5033164;28;20021;-66
2023/08/23 08:18:36;;;;;;;9.20;5.30;;;22.10;99.90;;;;;;5032804;28;20025;-67
2023/08/23 08:21:02;;;;;;;8.98;5.45;;;22.20;99.90;;;;;;5032963;28;20032;-67
2023/08/23 08:23:28;;;;;;;6.57;4.30;;;22.20;99.90;;;;;;5032885;28;20026;-66
2023/08/23 08:25:54;;;;;;;7.93;4.60;;;22.30;99.90;;;;;;5033120;28;20018;-66
2023/08/23 08:28:19;;;;;;;8.50;3.47;;;22.30;99.90;;;;;;5032962;28;20037;-66
2023/08/23 08:30:46;;;;;;;7.90;3.70;;;22.30;99.90;;;;;;5032824;28;20105;-66
2023/08/23 08:33:11;;;;;;;3.78;2.55;;;22.40;99.90;;;;;;5032603;28;20105;-66
2023/08/23 08:35:37;;;;;;;8.90;3.75;;;22.40;99.90;;;;;;5032803;28;20068;-65
2023/08/23 08:38:02;;;;;;;7.45;4.63;;;22.40;99.90;;;;;;5032921;28;20079;-65
2023/08/23 08:40:29;;;;;;;5.00;2.88;;;22.50;99.90;;;;;;5032953;28;20439;-66
2023/08/23 08:42:55;;;;;;;3.83;2.30;;;22.50;99.90;;;;;;5032857;28;20022;-66
2023/08/23 08:45:21;;;;;;;6.40;3.70;;;22.50;99.90;;;;;;5032880;28;20372;-65
2023/08/23 08:47:47;;;;;;;7.68;2.92;;;22.60;99.90;;;;;;5032595;28;20100;-66
2023/08/23 08:50:13;;;;;;;4.05;1.80;;;22.60;99.90;;;;;;5032557;28;20037;-66
2023/08/23 08:52:49;;;;;;;4.43;2.83;;;22.70;99.90;;;;;;5032950;28;20100;-66
2023/08/23 08:55:18;;;;;;;6.78;3.38;;;22.70;99.90;;;;;;5032744;28;20057;-66
2023/08/23 08:57:46;;;;;;;6.97;2.50;;;22.70;99.90;;;;;;5032801;28;20018;-65
2023/08/23 09:00:12;;;;;;;4.78;1.92;;;22.70;99.90;;;;;;5032573;28;20079;-70
2023/08/23 09:02:39;;;;;;;4.13;2.83;;;22.70;99.90;;;;;;5032223;28;20077;-67
2023/08/23 09:05:05;;;;;;;8.52;3.92;;;22.80;99.90;;;;;;5032541;28;20092;-69
2023/08/23 09:07:31;;;;;;;7.35;2.33;;;22.80;99.90;;;;;;5032847;28;20061;-67
2023/08/23 09:09:57;;;;;;;4.53;1.92;;;22.80;99.90;;;;;;5032489;28;20493;-65
2023/08/23 09:12:23;;;;;;;9.63;3.92;;;22.80;99.90;;;;;;5032613;28;20022;-66
2023/08/23 09:14:49;;;;;;;5.00;2.30;;;22.90;99.90;;;;;;5032684;28;20359;-66
2023/08/23 09:17:16;;;;;;;3.50;1.65;;;22.90;99.90;;;;;;5032178;28;20021;-66
2023/08/23 09:19:41;;;;;;;5.18;2.53;;;22.90;99.90;;;;;;5032703;28;20080;-66
2023/08/23 09:22:07;;;;;;;9.43;3.90;;;22.90;99.90;;;;;;5032489;28;20033;-66
2023/08/23 09:24:33;;;;;;;5.28;2.20;;;23.00;99.90;;;;;;5036234;28;20565;-66
2023/08/23 09:26:59;;;;;;;7.72;3.83;;;23.00;99.90;;;;;;5036057;28;20025;-66
2023/08/23 09:29:25;;;;;;;3.65;2.05;;;23.00;99.90;;;;;;5036096;28;20025;-69
2023/08/23 09:31:51;;;;;;;2.40;1.40;;;23.00;99.90;;;;;;5035444;28;20021;-66
2023/08/23 09:34:17;;;;;;;3.70;1.65;;;23.10;99.90;;;;;;5036106;28;20029;-66
2023/08/23 09:36:43;;;;;;;9.43;3.25;;;23.10;99.90;;;;;;5035878;28;20070;-66
2023/08/23 09:39:12;;;;;;;5.72;2.50;;;23.10;99.90;;;;;;5036015;28;20104;-65
2023/08/23 09:41:39;;;;;;;4.32;1.92;;;23.20;99.90;;;;;;5035745;28;20033;-65
2023/08/23 09:44:06;;;;;;;3.25;1.75;;;23.10;99.90;;;;;;5035700;28;20021;-67
2023/08/23 09:46:35;;;;;;;3.85;1.40;;;23.20;99.90;;;;;;5017712;28;20033;-66
2023/08/23 09:49:06;;;;;;;3.70;1.77;;;23.20;99.90;;;;;;5035655;28;20375;-66
2023/08/23 09:51:35;;;;;;;4.37;1.80;;;23.20;99.90;;;;;;5035593;28;20586;-66
2023/08/23 09:54:12;;;;;;;3.40;2.08;;;23.20;99.90;;;;;;5035393;28;20071;-67
2023/08/23 09:56:42;;;;;;;4.55;2.95;;;23.30;99.90;;;;;;5018714;28;20044;-65
2023/08/23 09:59:09;;;;;;;6.05;2.00;;;23.30;99.90;;;;;;5035199;28;20025;-65
2023/08/23 10:01:36;;;;;;;4.25;1.92;;;23.30;99.90;;;;;;5035177;28;20060;-66
2023/08/23 10:04:03;;;;;;;4.00;1.92;;;23.30;99.90;;;;;;5035396;28;20041;-66
2023/08/23 10:06:30;;;;;;;4.80;2.47;;;23.30;99.90;;;;;;5035273;28;20021;-68
2023/08/23 10:08:56;;;;;;;6.43;3.75;;;23.40;99.90;;;;;;5035474;28;20104;-66
2023/08/23 10:11:25;;;;;;;5.20;2.38;;;23.40;99.90;;;;;;5036168;28;20029;-65
2023/08/23 10:13:51;;;;;;;6.60;3.15;;;23.40;99.90;;;;;;5035669;28;20043;-67
2023/08/23 10:16:19;;;;;;;4.88;2.20;;;23.50;99.90;;;;;;5035347;28;20031;-66
2023/08/23 10:18:45;;;;;;;5.05;2.17;;;23.40;99.90;;;;;;5034963;28;20025;-65
2023/08/23 10:21:11;;;;;;;10.52;5.20;;;23.50;99.90;;;;;;5035246;28;20025;-73
2023/08/23 10:23:37;;;;;;;6.63;3.13;;;23.50;99.90;;;;;;5017233;28;20029;-72
2023/08/23 10:26:03;;;;;;;4.35;2.35;;;23.50;99.90;;;;;;5034751;28;20033;-72
2023/08/23 10:28:28;;;;;;;5.65;2.40;;;23.50;99.90;;;;;;5034856;28;20079;-67
2023/08/23 10:30:58;;;;;;;5.03;2.22;;;23.50;99.70;;;;;;5035013;28;20368;-68
2023/08/23 10:33:24;;;;;;;4.82;2.75;;;23.60;99.70;;;;;;5034865;28;20030;-68
2023/08/23 10:35:50;;;;;;;3.67;1.67;;;23.50;99.70;;;;;;5034845;28;20033;-66
2023/08/23 10:38:16;;;;;;;3.65;1.50;;;23.60;99.60;;;;;;5034528;28;20025;-68
2023/08/23 10:40:47;;;;;;;3.63;1.70;;;23.60;99.70;;;;;;5034860;28;20029;-72
2023/08/23 10:43:22;;;;;;;5.30;2.38;;;23.60;99.60;;;;;;5034226;28;20026;-65
2023/08/23 10:46:02;;;;;;;6.43;2.40;;;23.60;99.60;;;;;;5034700;28;20482;-68
2023/08/23 10:48:28;;;;;;;6.70;2.72;;;23.60;99.60;;;;;;5034370;28;20056;-69
2023/08/23 10:50:54;;;;;;;4.45;2.10;;;23.60;99.20;;;;;;5034657;28;20029;-67
2023/08/23 10:53:20;;;;;;;7.95;2.72;;;23.60;99.30;;;;;;5033519;28;20067;-65
2023/08/23 10:55:47;;;;;;;5.65;2.53;;;23.70;99.40;;;;;;5034387;28;20057;-65
2023/08/23 10:58:16;;;;;;;6.40;2.60;;;23.70;99.20;;;;;;5033608;28;20072;-65
2023/08/23 11:00:43;;;;;;;3.35;1.40;;;23.70;99.20;;;;;;5034113;28;20068;-64
2023/08/23 11:03:11;;;;;;;3.53;1.50;;;23.70;99.20;;;;;;5031764;28;20116;-66
2023/08/23 11:05:37;;;;;;;4.68;2.70;;;23.80;98.90;;;;;;5032925;28;20052;-65
2023/08/23 11:08:02;;;;;;;7.25;2.80;;;24.00;98.40;;;;;;5033426;28;20033;-66
2023/08/23 11:10:29;;;;;;;2.70;1.48;;;24.10;98.30;;;;;;5032625;28;20363;-66
2023/08/23 11:12:55;;;;;;;9.23;4.38;;;24.10;98.30;;;;;;5033047;28;20083;-66
2023/08/23 11:15:21;;;;;;;7.72;2.47;;;24.20;97.90;;;;;;5033118;28;20440;-66
2023/08/23 11:17:47;;;;;;;3.30;1.58;;;24.20;98.00;;;;;;5033463;28;20060;-66
2023/08/23 11:20:13;;;;;;;3.88;1.90;;;24.20;98.10;;;;;;5031642;28;20042;-65
2023/08/23 11:22:40;;;;;;;3.28;1.48;;;24.30;98.30;;;;;;5033320;28;20039;-66
2023/08/23 11:25:07;;;;;;;3.47;1.30;;;24.20;98.20;;;;;;5030157;28;20026;-65
2023/08/23 11:27:33;;;;;;;7.13;3.58;;;24.30;98.30;;;;;;5032656;28;20029;-69
2023/08/23 11:30:00;;;;;;;7.68;3.55;;;24.30;96.80;;;;;;5033356;28;20017;-68
2023/08/23 11:32:26;;;;;;;4.28;1.52;;;24.30;96.50;;;;;;5033555;28;20027;-65
2023/08/23 11:34:54;;;;;;;6.15;2.40;;;24.30;97.60;;;;;;5031033;28;20030;-66
2023/08/23 11:37:22;;;;;;;7.32;2.22;;;24.30;97.70;;;;;;5033638;28;20037;-65
2023/08/23 11:39:58;;;;;;;4.53;1.48;;;24.30;97.80;;;;;;5033464;28;20076;-65
2023/08/23 11:42:25;;;;;;;3.58;1.88;;;24.30;97.90;;;;;;5033500;28;20029;-65
2023/08/23 11:44:56;;;;;;;3.17;1.73;;;24.30;98.00;;;;;;5032829;28;20072;-66
2023/08/23 11:47:26;;;;;;;7.28;3.95;;;24.30;97.90;;;;;;5032072;28;20033;-66
2023/08/23 11:49:54;;;;;;;3.47;1.92;;;24.30;96.90;;;;;;5032755;28;20117;-65
2023/08/23 11:52:20;;;;;;;4.28;1.90;;;24.30;97.40;;;;;;5032618;28;20025;-66
2023/08/23 11:54:46;;;;;;;2.65;1.40;;;24.30;97.30;;;;;;5021899;28;20079;-66
2023/08/23 11:57:16;;;;;;;6.22;3.00;;;24.30;97.70;;;;;;5033196;28;20028;-66
2023/08/23 11:59:43;;;;;;;4.63;1.73;;;24.30;97.00;;;;;;5032426;28;20482;-66
2023/08/23 12:02:09;;;;;;;3.40;1.52;;;24.30;97.50;;;;;;5032545;28;20053;-66
2023/08/23 12:04:34;;;;;;;5.25;1.70;;;24.30;97.60;;;;;;5032963;28;20041;-65
2023/08/23 12:07:02;;;;;;;3.58;1.88;;;24.30;97.60;;;;;;5033052;28;20065;-65
2023/08/23 12:09:27;;;;;;;3.42;1.60;;;24.30;97.50;;;;;;5032082;28;20091;-68
2023/08/23 12:11:53;;;;;;;4.57;1.67;;;24.30;97.50;;;;;;5032723;28;20030;-66
2023/08/23 12:14:19;;;;;;;7.97;2.65;;;24.40;97.50;;;;;;5033060;28;20033;-67
2023/08/23 12:16:45;;;;;;;2.88;1.60;;;24.40;97.00;;;;;;5016778;28;20084;-67
2023/08/23 12:19:10;;;;;;;4.07;1.60;;;24.40;97.40;;;;;;5011231;28;20018;-67
2023/08/23 12:21:36;;;;;;;7.15;3.13;;;24.40;97.30;;;;;;5013545;28;20068;-66
2023/08/23 12:24:02;;;;;;;4.78;2.10;;;24.40;96.50;;;;;;5013531;28;20480;-65
2023/08/23 12:26:28;;;;;;;4.63;2.10;;;24.40;96.60;;;;;;5013429;28;20018;-65
2023/08/23 12:28:53;;;;;;;4.78;2.03;;;24.40;96.40;;;;;;5014784;28;20068;-68
2023/08/23 12:31:19;;;;;;;3.90;1.55;;;24.40;96.20;;;;;;5013132;28;20467;-66
2023/08/23 12:33:46;;;;;;;3.85;1.88;;;24.40;97.40;;;;;;5013306;28;20109;-69
2023/08/23 12:36:15;;;;;;;6.85;2.70;;;24.40;97.60;;;;;;5013072;28;20022;-70